Time,TemperatureF,DewpointF,PressureIn,WindDirection,WindDirectionDegrees,WindSpeedMPH,WindSpeedGustMPH,Humidity,HourlyPrecipIn,Conditions,Clouds,dailyrainin,SoftwareType,DateUTC
2013-08-24 00:03:00,72.0,71.0,30.00,NW,307,0.0,1.0,97,0.00,,,0.72,weatherlink.com 1.10,2013-08-24 04:03:00,
2013-08-24 00:18:00,72.4,72.0,30.00,NW,304,0.0,0.0,97,0.00,,,0.00,weatherlink.com 1.10,2013-08-24 04:18:00,
2013-08-24 00:33:00,72.6,72.0,30.01,NW,307,0.0,1.0,97,0.00,,,0.00,weatherlink.com 1.10,2013-08-24 04:33:00,
2013-08-24 00:49:00,72.4,72.0,30.02,WNW,302,0.0,1.0,97,0.00,,,0.00,weatherlink.com 1.10,2013-08-24 04:49:00,
2013-08-24 01:04:00,71.9,71.0,30.03,WNW,288,0.0,1.0,97,0.00,,,0.00,weatherlink.com 1.10,2013-08-24 05:04:00,
2013-08-24 01:19:00,71.4,71.0,30.04,WNW,300,0.0,1.0,97,0.00,,,0.00,weatherlink.com 1.10,2013-08-24 05:19:00,
2013-08-24 01:34:00,71.1,70.0,30.04,WNW,298,0.0,1.0,97,0.00,,,0.00,weatherlink.com 1.10,2013-08-24 05:34:00,
2013-08-24 01:49:00,71.0,70.0,30.03,NW,311,0.0,2.0,97,0.00,,,0.00,weatherlink.com 1.10,2013-08-24 05:49:00,
2013-08-24 02:04:00,70.9,70.0,30.03,WNW,295,0.0,2.0,98,0.00,,,0.00,weatherlink.com 1.10,2013-08-24 06:04:00,
2013-08-24 02:19:00,70.9,70.0,30.03,WNW,297,0.0,1.0,98,0.00,,,0.00,weatherlink.com 1.10,2013-08-24 06:19:00,
2013-08-24 02:34:00,70.9,70.0,30.03,WNW,300,0.0,1.0,98,0.00,,,0.00,weatherlink.com 1.10,2013-08-24 06:34:00,
2013-08-24 02:49:00,70.8,70.0,30.03,WNW,282,0.0,2.0,98,0.00,,,0.00,weatherlink.com 1.10,2013-08-24 06:49:00,
2013-08-24 03:04:00,70.5,70.0,30.02,NW,304,0.0,2.0,98,0.00,,,0.00,weatherlink.com 1.10,2013-08-24 07:04:00,
2013-08-24 03:19:00,70.4,70.0,30.02,NW,311,0.0,1.0,98,0.00,,,0.00,weatherlink.com 1.10,2013-08-24 07:19:00,
2013-08-24 03:34:00,70.2,70.0,30.02,WNW,298,1.0,4.0,98,0.00,,,0.00,weatherlink.com 1.10,2013-08-24 07:34:00,
2013-08-24 03:49:00,70.5,70.0,30.02,NNE,20,0.0,6.0,98,0.00,,,0.00,weatherlink.com 1.10,2013-08-24 07:49:00,
2013-08-24 04:04:00,70.6,70.0,30.03,NW,317,2.0,3.0,98,0.00,,,0.00,weatherlink.com 1.10,2013-08-24 08:04:00,
2013-08-24 04:19:00,70.4,70.0,30.03,NE,52,1.0,4.0,98,0.00,,,0.00,weatherlink.com 1.10,2013-08-24 08:19:00,
2013-08-24 04:34:00,70.0,69.0,30.04,North,360,1.0,6.0,98,0.00,,,0.00,weatherlink.com 1.10,2013-08-24 08:34:00,
2013-08-24 04:49:00,69.6,69.0,30.05,NW,326,0.0,3.0,98,0.00,,,0.00,weatherlink.com 1.10,2013-08-24 08:49:00,
2013-08-24 05:04:00,69.4,69.0,30.05,North,352,0.0,3.0,98,0.00,,,0.00,weatherlink.com 1.10,2013-08-24 09:04:00,
2013-08-24 05:19:00,69.2,69.0,30.06,WNW,302,0.0,2.0,98,0.00,,,0.00,weatherlink.com 1.10,2013-08-24 09:19:00,
2013-08-24 05:34:00,68.8,68.0,30.06,WNW,285,1.0,2.0,98,0.00,,,0.00,weatherlink.com 1.10,2013-08-24 09:34:00,
2013-08-24 05:49:00,68.2,68.0,30.07,West,280,0.0,4.0,98,0.00,,,0.00,weatherlink.com 1.10,2013-08-24 09:49:00,
2013-08-24 06:04:00,68.3,68.0,30.07,West,275,0.0,3.0,98,0.00,,,0.00,weatherlink.com 1.10,2013-08-24 10:04:00,
2013-08-24 06:19:00,68.2,68.0,30.08,WNW,300,0.0,2.0,98,0.00,,,0.00,weatherlink.com 1.10,2013-08-24 10:19:00,
2013-08-24 06:34:00,68.1,68.0,30.08,WNW,301,1.0,5.0,98,0.00,,,0.00,weatherlink.com 1.10,2013-08-24 10:34:00,
2013-08-24 06:49:00,68.1,68.0,30.09,NW,305,1.0,4.0,98,0.00,,,0.00,weatherlink.com 1.10,2013-08-24 10:49:00,
2013-08-24 07:04:00,68.1,68.0,30.10,NNW,344,0.0,3.0,98,0.00,,,0.00,weatherlink.com 1.10,2013-08-24 11:04:00,
2013-08-24 07:19:00,68.3,68.0,30.11,North,352,1.0,4.0,98,0.00,,,0.00,weatherlink.com 1.10,2013-08-24 11:19:00,
2013-08-24 07:34:00,68.4,68.0,30.11,WNW,300,0.0,2.0,98,0.00,,,0.00,weatherlink.com 1.10,2013-08-24 11:34:00,
2013-08-24 07:49:00,68.6,68.0,30.11,NW,314,0.0,2.0,98,0.00,,,0.00,weatherlink.com 1.10,2013-08-24 11:49:00,
2013-08-24 08:04:00,68.9,68.0,30.11,West,259,2.0,3.0,98,0.00,,,0.00,weatherlink.com 1.10,2013-08-24 12:04:00,
2013-08-24 08:19:00,69.6,69.0,30.12,ESE,115,0.0,5.0,97,0.00,,,0.00,weatherlink.com 1.10,2013-08-24 12:19:00,
2013-08-24 08:34:00,70.7,69.0,30.12,NNW,335,0.0,5.0,95,0.00,,,0.00,weatherlink.com 1.10,2013-08-24 12:34:00,
2013-08-24 08:49:00,71.6,70.0,30.13,NNW,327,0.0,3.0,93,0.00,,,0.00,weatherlink.com 1.10,2013-08-24 12:49:00,
2013-08-24 09:04:00,71.9,69.0,30.13,NW,316,0.0,4.0,89,0.00,,,0.00,weatherlink.com 1.10,2013-08-24 13:04:00,
2013-08-24 09:19:00,72.4,69.0,30.14,West,260,0.0,5.0,88,0.00,,,0.00,weatherlink.com 1.10,2013-08-24 13:19:00,
2013-08-24 09:35:00,73.5,69.0,30.14,East,100,1.0,4.0,86,0.00,,,0.00,weatherlink.com 1.10,2013-08-24 13:35:00,
2013-08-24 09:50:00,74.8,70.0,30.14,South,172,0.0,5.0,84,0.00,,,0.00,weatherlink.com 1.10,2013-08-24 13:50:00,
2013-08-24 10:05:00,75.7,70.0,30.14,NE,44,1.0,6.0,81,0.00,,,0.00,weatherlink.com 1.10,2013-08-24 14:05:00,
2013-08-24 10:20:00,76.5,70.0,30.15,WNW,298,3.0,7.0,79,0.00,,,0.00,weatherlink.com 1.10,2013-08-24 14:20:00,
2013-08-24 10:35:00,77.1,69.0,30.16,North,1,2.0,6.0,77,0.00,,,0.00,weatherlink.com 1.10,2013-08-24 14:35:00,
2013-08-24 10:50:00,78.5,70.0,30.16,North,4,3.0,5.0,76,0.00,,,0.00,weatherlink.com 1.10,2013-08-24 14:50:00,
2013-08-24 11:05:00,79.0,70.0,30.16,NW,323,3.0,6.0,75,0.00,,,0.00,weatherlink.com 1.10,2013-08-24 15:05:00,
2013-08-24 11:20:00,79.4,70.0,30.17,NE,44,1.0,4.0,74,0.00,,,0.00,weatherlink.com 1.10,2013-08-24 15:20:00,
2013-08-24 11:35:00,79.4,71.0,30.17,WNW,295,1.0,3.0,76,0.00,,,0.00,weatherlink.com 1.10,2013-08-24 15:35:00,
2013-08-24 11:50:00,80.1,72.0,30.17,NW,307,0.0,3.0,75,0.00,,,0.00,weatherlink.com 1.10,2013-08-24 15:50:00,
2013-08-24 12:05:00,80.9,71.0,30.17,North,352,2.0,4.0,72,0.00,,,0.00,weatherlink.com 1.10,2013-08-24 16:05:00,
2013-08-24 12:20:00,81.0,71.0,30.17,NE,50,1.0,6.0,71,0.00,,,0.00,weatherlink.com 1.10,2013-08-24 16:20:00,
2013-08-24 12:35:00,81.0,71.0,30.17,NE,49,3.0,14.0,71,0.00,,,0.00,weatherlink.com 1.10,2013-08-24 16:35:00,
2013-08-24 12:50:00,81.7,69.0,30.17,East,99,1.0,5.0,66,0.00,,,0.00,weatherlink.com 1.10,2013-08-24 16:50:00,
2013-08-24 13:05:00,81.6,69.0,30.18,West,276,0.0,11.0,66,0.00,,,0.00,weatherlink.com 1.10,2013-08-24 17:05:00,
2013-08-24 13:20:00,81.4,70.0,30.18,North,6,2.0,5.0,68,0.00,,,0.00,weatherlink.com 1.10,2013-08-24 17:20:00,
2013-08-24 13:35:00,81.6,69.0,30.17,WNW,290,4.0,6.0,66,0.00,,,0.00,weatherlink.com 1.10,2013-08-24 17:35:00,
2013-08-24 13:50:00,82.6,70.0,30.18,NNW,340,1.0,5.0,66,0.00,,,0.00,weatherlink.com 1.10,2013-08-24 17:50:00,
2013-08-24 14:05:00,82.2,68.0,30.18,North,1,2.0,7.0,62,0.00,,,0.00,weatherlink.com 1.10,2013-08-24 18:05:00,
2013-08-24 14:20:00,82.6,68.0,30.18,ENE,77,8.0,8.0,62,0.00,,,0.00,weatherlink.com 1.10,2013-08-24 18:20:00,
2013-08-24 14:35:00,81.3,67.0,30.18,North,360,1.0,5.0,63,0.00,,,0.00,weatherlink.com 1.10,2013-08-24 18:35:00,
2013-08-24 14:50:00,80.9,67.0,30.18,NW,326,2.0,5.0,63,0.00,,,0.00,weatherlink.com 1.10,2013-08-24 18:50:00,
2013-08-24 15:05:00,80.6,67.0,30.18,East,85,4.0,7.0,63,0.00,,,0.00,weatherlink.com 1.10,2013-08-24 19:05:00,
2013-08-24 15:20:00,80.5,68.0,30.18,WNW,284,2.0,5.0,65,0.00,,,0.00,weatherlink.com 1.10,2013-08-24 19:20:00,
2013-08-24 15:35:00,79.9,68.0,30.18,NNW,336,1.0,6.0,66,0.00,,,0.00,weatherlink.com 1.10,2013-08-24 19:35:00,
2013-08-24 15:50:00,79.7,69.0,30.17,North,356,2.0,3.0,69,0.00,,,0.00,weatherlink.com 1.10,2013-08-24 19:50:00,
2013-08-24 16:05:00,80.8,68.0,30.18,NE,41,4.0,8.0,66,0.00,,,0.00,weatherlink.com 1.10,2013-08-24 20:05:00,
2013-08-24 16:20:00,79.6,70.0,30.18,NNE,25,3.0,9.0,73,0.00,,,0.00,weatherlink.com 1.10,2013-08-24 20:20:00,
2013-08-24 16:35:00,78.6,71.0,30.18,ENE,75,2.0,9.0,77,0.00,,,0.00,weatherlink.com 1.10,2013-08-24 20:35:00,
2013-08-24 16:50:00,78.2,70.0,30.18,NE,44,0.0,11.0,75,0.00,,,0.00,weatherlink.com 1.10,2013-08-24 20:50:00,
2013-08-24 17:05:00,78.0,69.0,30.18,East,91,0.0,7.0,74,0.00,,,0.00,weatherlink.com 1.10,2013-08-24 21:05:00,
2013-08-24 17:20:00,77.9,70.0,30.18,East,91,5.0,10.0,76,0.00,,,0.00,weatherlink.com 1.10,2013-08-24 21:20:00,
2013-08-24 17:35:00,77.5,69.0,30.19,WNW,297,1.0,5.0,75,0.00,,,0.00,weatherlink.com 1.10,2013-08-24 21:35:00,
2013-08-24 17:50:00,77.5,69.0,30.19,North,352,3.0,4.0,75,0.00,,,0.00,weatherlink.com 1.10,2013-08-24 21:50:00,
2013-08-24 18:05:00,77.6,68.0,30.19,NNW,343,0.0,9.0,72,0.00,,,0.00,weatherlink.com 1.10,2013-08-24 22:05:00,
2013-08-24 18:20:00,77.3,66.0,30.19,West,263,2.0,5.0,69,0.00,,,0.00,weatherlink.com 1.10,2013-08-24 22:20:00,
2013-08-24 18:35:00,77.2,65.0,30.19,ENE,66,1.0,5.0,67,0.00,,,0.00,weatherlink.com 1.10,2013-08-24 22:35:00,
2013-08-24 18:50:00,76.9,66.0,30.19,NNW,335,0.0,7.0,69,0.00,,,0.00,weatherlink.com 1.10,2013-08-24 22:50:00,
2013-08-24 19:05:00,76.3,66.0,30.20,East,86,6.0,6.0,70,0.00,,,0.00,weatherlink.com 1.10,2013-08-24 23:05:00,
2013-08-24 19:21:00,75.8,66.0,30.20,SW,226,0.0,2.0,72,0.00,,,0.00,weatherlink.com 1.10,2013-08-24 23:21:00,
2013-08-24 19:36:00,75.1,66.0,30.20,NW,320,1.0,3.0,73,0.00,,,0.00,weatherlink.com 1.10,2013-08-24 23:36:00,
2013-08-24 19:51:00,74.6,66.0,30.21,ENE,77,1.0,3.0,74,0.00,,,0.00,weatherlink.com 1.10,2013-08-24 23:51:00,
2013-08-24 20:06:00,74.2,65.0,30.21,NW,316,0.0,3.0,73,0.00,,,0.00,weatherlink.com 1.10,2013-08-25 00:06:00,
2013-08-24 20:21:00,73.8,65.0,30.21,North,358,1.0,2.0,75,0.00,,,0.00,weatherlink.com 1.10,2013-08-25 00:21:00,
2013-08-24 20:36:00,73.5,66.0,30.22,WNW,285,0.0,3.0,76,0.00,,,0.00,weatherlink.com 1.10,2013-08-25 00:36:00,
2013-08-24 20:51:00,73.3,65.0,30.22,NW,321,0.0,6.0,76,0.00,,,0.00,weatherlink.com 1.10,2013-08-25 00:51:00,
2013-08-24 21:06:00,73.2,66.0,30.23,NW,321,0.0,4.0,77,0.00,,,0.00,weatherlink.com 1.10,2013-08-25 01:06:00,
2013-08-24 21:21:00,73.0,66.0,30.23,North,350,0.0,2.0,78,0.00,,,0.00,weatherlink.com 1.10,2013-08-25 01:21:00,
2013-08-24 21:36:00,72.8,66.0,30.24,NNE,20,1.0,4.0,79,0.00,,,0.00,weatherlink.com 1.10,2013-08-25 01:36:00,
2013-08-24 21:51:00,72.7,66.0,30.24,NW,326,1.0,2.0,79,0.00,,,0.00,weatherlink.com 1.10,2013-08-25 01:51:00,
2013-08-24 22:06:00,72.4,66.0,30.25,ESE,103,1.0,3.0,80,0.00,,,0.00,weatherlink.com 1.10,2013-08-25 02:06:00,
2013-08-24 22:21:00,72.2,66.0,30.25,SSW,200,0.0,4.0,81,0.00,,,0.00,weatherlink.com 1.10,2013-08-25 02:21:00,
2013-08-24 22:36:00,71.7,66.0,30.25,WSW,257,0.0,3.0,83,0.00,,,0.00,weatherlink.com 1.10,2013-08-25 02:36:00,
2013-08-24 22:51:00,71.3,66.0,30.25,NW,316,0.0,1.0,84,0.00,,,0.00,weatherlink.com 1.10,2013-08-25 02:51:00,
2013-08-24 23:06:00,71.1,66.0,30.25,NW,326,0.0,3.0,84,0.00,,,0.00,weatherlink.com 1.10,2013-08-25 03:06:00,
2013-08-24 23:21:00,71.0,66.0,30.25,NNE,16,0.0,3.0,84,0.00,,,0.00,weatherlink.com 1.10,2013-08-25 03:21:00,
2013-08-24 23:36:00,70.6,66.0,30.26,SSW,207,0.0,1.0,84,0.00,,,0.00,weatherlink.com 1.10,2013-08-25 03:36:00,
2013-08-24 23:51:00,70.4,65.0,30.26,South,176,0.0,4.0,84,0.00,,,0.00,weatherlink.com 1.10,2013-08-25 03:51:00,